EmailTwitter


Observations de surface / Royaume-Uni / EGLL (03772)

Régions: Québec | Canada | États-Unis | Europe | France | UK | Ailleurs
Station
Affichage
Infos & localisation pour EGLL (03772) | Aide pour décoder les METARs

Observations prises le 2018-07-21 à 05H20 UTC à LONDON/HEATHROW, UK (EGLL)

Obstacle(s) à la visibilité: faible pluie.

Température: 17.0 Celsius

Point de rosée: 16.0 Celsius

Humidité relative: 94%

Indice Humidex: 22.

Vents: Variable à 6 km/h ou 3 noeuds.

Pression au niveau moyen de la mer: 101.30 kilopascals.

Visibilité horizontale: 3.73 milles terrestres ou 5.97 kilomètres.

Observation METAR:

EGLL 210520Z AUTO VRB03KT 6000 -RA NCD 17/16 Q1013 NOSIG=